Time;durP1;ratioP1;P1;durP2;ratioP2;P2;SDS_P1;SDS_P2;PMS_P1;PMS_P2;Temp;Humidity;BMP_temperature;BMP_pressure;BME280_temperature;BME280_humidity;BME280_pressure;Samples;Min_cycle;Max_cycle;Signal;HPM_P1;HPM_P2
2022/11/26 00:00:24;;;;;;;13.30;7.75;;;9.80;97.90;;;;;;4964593;28;20042;-72
2022/11/26 00:02:50;;;;;;;14.75;7.60;;;9.80;97.90;;;;;;4963599;28;20191;-72
2022/11/26 00:05:16;;;;;;;16.80;8.13;;;9.80;97.90;;;;;;4967440;28;20638;-72
2022/11/26 00:07:53;;;;;;;12.52;7.82;;;9.80;97.90;;;;;;4965792;28;20034;-73
2022/11/26 00:10:25;;;;;;;14.85;8.57;;;9.80;97.90;;;;;;4963362;28;20042;-72
2022/11/26 00:12:51;;;;;;;14.82;8.80;;;9.80;97.80;;;;;;4967055;28;20034;-72
2022/11/26 00:15:21;;;;;;;11.63;7.60;;;9.90;97.80;;;;;;4967072;28;20030;-72
2022/11/26 00:17:48;;;;;;;10.75;7.10;;;9.80;97.70;;;;;;4979701;28;20376;-72
2022/11/26 00:20:15;;;;;;;12.20;8.10;;;9.80;97.70;;;;;;4963675;28;20046;-72
2022/11/26 00:22:48;;;;;;;13.32;7.90;;;9.80;97.70;;;;;;4964254;28;20817;-72
2022/11/26 00:25:21;;;;;;;10.88;7.25;;;9.80;97.80;;;;;;4962750;28;20502;-72
2022/11/26 00:27:48;;;;;;;13.50;7.50;;;9.80;97.80;;;;;;4965463;28;20977;-72
2022/11/26 00:30:32;;;;;;;15.27;8.10;;;9.80;97.80;;;;;;4967112;28;20121;-72
2022/11/26 00:32:58;;;;;;;13.27;7.78;;;9.80;97.90;;;;;;4963481;28;20031;-72
2022/11/26 00:35:24;;;;;;;14.80;8.30;;;9.80;97.90;;;;;;4965980;28;20042;-72
2022/11/26 00:37:53;;;;;;;16.23;8.57;;;9.80;97.90;;;;;;4964074;28;20027;-71
2022/11/26 00:40:25;;;;;;;15.18;8.27;;;9.80;98.00;;;;;;4963212;28;20035;-72
2022/11/26 00:42:52;;;;;;;15.45;8.27;;;9.80;97.90;;;;;;4963335;28;20050;-73
2022/11/26 00:45:27;;;;;;;15.07;8.23;;;9.80;98.00;;;;;;4966353;28;20554;-72
2022/11/26 00:47:53;;;;;;;15.93;8.80;;;9.80;98.00;;;;;;4967816;28;20058;-72
2022/11/26 00:50:21;;;;;;;14.15;8.10;;;9.90;98.00;;;;;;4967897;28;20089;-73
2022/11/26 00:52:55;;;;;;;13.32;9.00;;;9.80;97.90;;;;;;4964909;28;20033;-72
2022/11/26 00:55:32;;;;;;;14.98;8.40;;;9.80;98.00;;;;;;4963565;28;20813;-72
2022/11/26 00:57:58;;;;;;;16.85;9.05;;;9.90;98.00;;;;;;4963128;28;20507;-72
2022/11/26 01:00:27;;;;;;;16.88;9.75;;;9.90;98.20;;;;;;4964272;28;20034;-73
2022/11/26 01:02:53;;;;;;;16.58;9.70;;;9.80;97.90;;;;;;4969741;28;20038;-72
2022/11/26 01:05:20;;;;;;;15.25;8.77;;;9.90;97.90;;;;;;4969417;28;20035;-72
2022/11/26 01:07:46;;;;;;;16.42;9.10;;;9.90;97.90;;;;;;4966417;28;20035;-72
2022/11/26 01:10:26;;;;;;;14.80;9.07;;;9.90;98.00;;;;;;4965919;28;20053;-71
2022/11/26 01:12:53;;;;;;;13.40;9.05;;;9.90;98.00;;;;;;4960873;28;20038;-73
2022/11/26 01:15:22;;;;;;;16.15;10.00;;;9.90;98.00;;;;;;4963592;28;20081;-73
2022/11/26 01:17:48;;;;;;;14.77;9.13;;;9.90;98.00;;;;;;4962255;28;20030;-73
2022/11/26 01:20:29;;;;;;;17.55;10.13;;;9.90;98.00;;;;;;4971341;28;20546;-74
2022/11/26 01:22:57;;;;;;;16.52;8.65;;;9.90;98.00;;;;;;4966228;28;20030;-73
2022/11/26 01:25:24;;;;;;;14.80;9.13;;;9.90;98.00;;;;;;4967585;28;20035;-74
2022/11/26 01:27:51;;;;;;;17.27;9.63;;;9.90;98.00;;;;;;4964251;28;20030;-73
2022/11/26 01:30:28;;;;;;;15.63;9.65;;;9.90;98.00;;;;;;4961747;28;20030;-73
2022/11/26 01:32:54;;;;;;;18.70;10.10;;;9.90;98.00;;;;;;4961699;28;20033;-73
2022/11/26 01:35:20;;;;;;;17.50;10.10;;;9.90;97.90;;;;;;4962892;28;20483;-73
2022/11/26 01:37:47;;;;;;;16.65;9.13;;;9.90;97.90;;;;;;4963984;28;20117;-73
2022/11/26 01:40:25;;;;;;;18.00;9.45;;;9.80;97.90;;;;;;4966289;28;20037;-74
2022/11/26 01:43:15;;;;;;;16.88;9.77;;;9.80;98.00;;;;;;4966493;28;20027;-73
2022/11/26 01:45:41;;;;;;;16.80;10.60;;;9.80;98.00;;;;;;4966951;28;20124;-73
2022/11/26 01:48:30;;;;;;;16.90;10.10;;;9.80;98.00;;;;;;4964742;28;20122;-73
2022/11/26 01:51:01;;;;;;;17.20;10.95;;;9.80;98.10;;;;;;4966069;28;20069;-74
2022/11/26 01:53:41;;;;;;;18.20;10.40;;;9.80;98.10;;;;;;4967184;28;20027;-74
2022/11/26 01:56:19;;;;;;;16.77;9.70;;;9.80;98.10;;;;;;4963364;28;20031;-73
2022/11/26 01:58:59;;;;;;;16.40;10.32;;;9.80;98.10;;;;;;4966515;28;20035;-74
2022/11/26 02:01:25;;;;;;;17.95;9.75;;;9.90;98.10;;;;;;4967789;28;20120;-74
2022/11/26 02:04:06;;;;;;;18.02;11.00;;;9.90;98.10;;;;;;4965797;28;20542;-73
2022/11/26 02:06:33;;;;;;;19.98;11.00;;;9.90;98.20;;;;;;4968767;28;20054;-73
2022/11/26 02:09:02;;;;;;;21.10;11.60;;;9.80;98.20;;;;;;4966108;28;20394;-74
2022/11/26 02:11:28;;;;;;;18.33;11.07;;;9.80;98.10;;;;;;4967180;28;20033;-74
2022/11/26 02:14:13;;;;;;;18.88;10.73;;;9.90;98.10;;;;;;4965167;28;20031;-74
2022/11/26 02:16:48;;;;;;;17.95;9.85;;;9.90;98.10;;;;;;4966423;28;20062;-73
2022/11/26 02:19:51;;;;;;;18.15;11.02;;;9.90;98.10;;;;;;4964451;28;20118;-74
2022/11/26 02:22:32;;;;;;;16.35;9.85;;;9.90;98.10;;;;;;4967803;28;20467;-74
2022/11/26 02:25:19;;;;;;;26.15;13.65;;;9.90;98.10;;;;;;4968877;28;20062;-74
2022/11/26 02:27:54;;;;;;;18.92;11.43;;;9.80;98.20;;;;;;4967954;28;20030;-74
2022/11/26 02:30:19;;;;;;;19.38;10.73;;;9.90;98.20;;;;;;4965644;28;20167;-73
2022/11/26 02:32:45;;;;;;;18.08;11.57;;;9.90;98.20;;;;;;4965647;28;20799;-74
2022/11/26 02:35:11;;;;;;;21.10;12.73;;;9.90;98.20;;;;;;4965377;28;20025;-73
2022/11/26 02:37:45;;;;;;;25.45;13.02;;;9.90;98.20;;;;;;4968672;28;20145;-74
2022/11/26 02:40:11;;;;;;;28.27;13.45;;;9.90;98.30;;;;;;4973449;28;20037;-74
2022/11/26 02:42:37;;;;;;;20.98;11.60;;;9.90;98.20;;;;;;4972753;28;20491;-75
2022/11/26 02:45:27;;;;;;;25.35;13.57;;;9.90;98.20;;;;;;4968013;28;20035;-74
2022/11/26 02:47:56;;;;;;;23.67;12.93;;;9.90;98.20;;;;;;4960977;28;20043;-74
2022/11/26 02:50:33;;;;;;;23.02;12.43;;;9.90;98.20;;;;;;4965686;28;20026;-74
2022/11/26 02:53:01;;;;;;;23.48;12.60;;;9.90;98.20;;;;;;4963731;28;20585;-75
2022/11/26 02:55:33;;;;;;;22.25;12.00;;;9.90;98.10;;;;;;4973806;28;20499;-74
2022/11/26 02:57:59;;;;;;;21.67;12.40;;;9.90;98.20;;;;;;4966695;28;20030;-74
2022/11/26 03:00:25;;;;;;;21.40;12.27;;;9.90;98.20;;;;;;4970961;28;20035;-73
2022/11/26 03:02:59;;;;;;;22.90;12.57;;;9.90;98.20;;;;;;4968018;28;20043;-74
2022/11/26 03:05:26;;;;;;;22.05;11.93;;;9.90;98.30;;;;;;4967742;28;20475;-74
2022/11/26 03:07:53;;;;;;;28.30;13.65;;;9.90;98.20;;;;;;4965894;28;20859;-74
2022/11/26 03:10:28;;;;;;;27.75;13.48;;;9.90;98.20;;;;;;4964744;28;20146;-73
2022/11/26 03:12:53;;;;;;;27.10;13.90;;;9.90;98.20;;;;;;4971354;28;20023;-74
2022/11/26 03:15:20;;;;;;;30.63;14.85;;;10.00;98.20;;;;;;4971671;28;20046;-74
2022/11/26 03:17:45;;;;;;;25.55;13.57;;;10.00;98.30;;;;;;4969165;28;20117;-74
2022/11/26 03:20:11;;;;;;;25.98;14.38;;;10.00;98.30;;;;;;4967316;28;20031;-74
2022/11/26 03:22:37;;;;;;;25.85;12.85;;;10.00;98.30;;;;;;4966291;28;20121;-73
2022/11/26 03:25:04;;;;;;;26.40;12.68;;;9.90;98.30;;;;;;4968265;28;20050;-74
2022/11/26 03:27:30;;;;;;;26.70;13.52;;;10.00;98.40;;;;;;4965414;28;20115;-73
2022/11/26 03:29:56;;;;;;;25.30;14.25;;;10.00;98.40;;;;;;4964026;28;20125;-74
2022/11/26 03:32:22;;;;;;;27.50;14.93;;;10.00;98.40;;;;;;4968984;28;20066;-74
2022/11/26 03:34:48;;;;;;;27.08;14.48;;;10.00;98.40;;;;;;4967668;28;20034;-73
2022/11/26 03:37:14;;;;;;;26.70;13.38;;;10.00;98.40;;;;;;4967287;28;20735;-74
2022/11/26 03:39:40;;;;;;;23.60;13.27;;;10.00;98.40;;;;;;4965319;28;20058;-74
2022/11/26 03:42:05;;;;;;;27.10;14.13;;;10.00;98.50;;;;;;4964200;28;20070;-74
2022/11/26 03:44:31;;;;;;;22.45;13.18;;;10.00;98.50;;;;;;4966659;28;20038;-74
2022/11/26 03:46:57;;;;;;;26.48;14.82;;;10.00;98.60;;;;;;4965043;28;20030;-74
2022/11/26 03:49:23;;;;;;;28.40;14.48;;;10.00;98.60;;;;;;4964733;28;20046;-74
2022/11/26 03:51:48;;;;;;;27.05;14.32;;;10.00;98.60;;;;;;4966246;28;20033;-74
2022/11/26 03:54:14;;;;;;;25.55;13.23;;;10.00;98.60;;;;;;4966997;28;20034;-74
2022/11/26 03:56:40;;;;;;;23.95;13.45;;;10.00;98.60;;;;;;4964679;28;20039;-74
2022/11/26 03:59:06;;;;;;;25.10;14.20;;;10.00;98.50;;;;;;4965576;28;20042;-74
2022/11/26 04:01:32;;;;;;;27.58;13.95;;;10.10;98.60;;;;;;4967855;28;20451;-74
2022/11/26 04:03:58;;;;;;;23.13;12.73;;;10.00;98.60;;;;;;4965090;28;20030;-74
2022/11/26 04:06:24;;;;;;;23.90;13.43;;;10.10;98.60;;;;;;4964300;28;20093;-74
2022/11/26 04:08:50;;;;;;;29.88;14.93;;;10.00;98.60;;;;;;4964757;28;20093;-74
2022/11/26 04:11:16;;;;;;;25.65;14.57;;;10.10;98.50;;;;;;4965304;28;20031;-74
2022/11/26 04:13:42;;;;;;;28.17;14.95;;;10.10;98.60;;;;;;4963737;28;20129;-74
2022/11/26 04:16:08;;;;;;;25.67;12.73;;;10.10;98.60;;;;;;4967787;28;20424;-74
2022/11/26 04:18:34;;;;;;;27.02;13.30;;;10.10;98.60;;;;;;4968030;28;20038;-72
2022/11/26 04:21:00;;;;;;;24.02;13.30;;;10.10;98.50;;;;;;4965134;28;20039;-74
2022/11/26 04:23:26;;;;;;;31.55;13.77;;;10.10;98.50;;;;;;4965340;28;20776;-74
2022/11/26 04:25:51;;;;;;;24.27;11.98;;;10.10;98.50;;;;;;4963963;28;20034;-73
2022/11/26 04:28:17;;;;;;;30.50;13.80;;;10.10;98.50;;;;;;4963987;28;20819;-73
2022/11/26 04:30:43;;;;;;;29.05;13.43;;;10.10;98.60;;;;;;4965861;28;20034;-74
2022/11/26 04:33:09;;;;;;;22.63;11.63;;;10.10;98.60;;;;;;4968201;28;20045;-74
2022/11/26 04:35:36;;;;;;;22.05;12.70;;;10.10;98.60;;;;;;4969556;28;20089;-74
2022/11/26 04:38:02;;;;;;;30.85;13.35;;;10.10;98.50;;;;;;4966377;28;20034;-74
2022/11/26 04:40:28;;;;;;;27.10;12.80;;;10.10;98.50;;;;;;4966159;28;20050;-74
2022/11/26 04:42:53;;;;;;;27.77;13.32;;;10.10;98.40;;;;;;4963962;28;20104;-74
2022/11/26 04:45:19;;;;;;;28.92;14.00;;;10.10;98.40;;;;;;4962239;28;20039;-74
2022/11/26 04:47:45;;;;;;;23.75;12.85;;;10.10;98.50;;;;;;4965832;28;20036;-74
2022/11/26 04:50:11;;;;;;;24.80;12.85;;;10.10;98.50;;;;;;4968113;28;20062;-73
2022/11/26 04:52:37;;;;;;;26.55;13.45;;;10.10;98.50;;;;;;4969860;28;20026;-74
2022/11/26 04:55:03;;;;;;;34.10;13.18;;;10.10;98.50;;;;;;4966484;28;20030;-74
2022/11/26 04:57:29;;;;;;;31.55;12.25;;;10.20;98.50;;;;;;4966658;28;20045;-74
2022/11/26 04:59:54;;;;;;;26.73;12.75;;;10.10;98.50;;;;;;4964280;28;20066;-74
2022/11/26 05:02:20;;;;;;;26.30;12.75;;;10.20;98.50;;;;;;4962979;28;20058;-74
2022/11/26 05:04:46;;;;;;;27.13;12.77;;;10.20;98.40;;;;;;4965599;28;20027;-74
2022/11/26 05:07:11;;;;;;;26.33;12.27;;;10.10;98.40;;;;;;4967485;28;20746;-74
2022/11/26 05:09:37;;;;;;;19.00;10.57;;;10.10;98.50;;;;;;4968301;28;20045;-74
2022/11/26 05:12:03;;;;;;;20.60;10.30;;;10.10;98.50;;;;;;4966155;28;20030;-74
2022/11/26 05:14:29;;;;;;;21.42;10.77;;;10.10;98.50;;;;;;4965656;28;20067;-74
2022/11/26 05:16:55;;;;;;;28.80;11.25;;;10.10;98.50;;;;;;4963254;28;20038;-74
2022/11/26 05:19:20;;;;;;;29.77;11.50;;;10.10;98.50;;;;;;4962786;28;20182;-74
2022/11/26 05:21:46;;;;;;;20.65;10.70;;;10.10;98.50;;;;;;4948178;28;20494;-74
2022/11/26 05:24:12;;;;;;;22.63;10.63;;;10.10;98.40;;;;;;4968987;28;20554;-74
2022/11/26 05:26:38;;;;;;;25.20;11.48;;;10.10;98.40;;;;;;4966775;28;20490;-74
2022/11/26 05:29:04;;;;;;;22.42;10.23;;;10.10;98.50;;;;;;4964714;28;20141;-73
2022/11/26 05:31:30;;;;;;;27.48;11.68;;;10.20;98.50;;;;;;4964444;28;20023;-74
2022/11/26 05:33:55;;;;;;;25.98;11.63;;;10.10;98.50;;;;;;4962551;28;20033;-74
2022/11/26 05:36:21;;;;;;;19.75;9.38;;;10.10;98.50;;;;;;4964627;28;20570;-70
2022/11/26 05:38:47;;;;;;;23.17;10.00;;;10.10;98.40;;;;;;4963440;28;20146;-72
2022/11/26 05:41:13;;;;;;;23.63;9.80;;;10.20;98.40;;;;;;4961590;28;20030;-72
2022/11/26 05:43:38;;;;;;;17.98;9.45;;;10.20;98.30;;;;;;4965174;28;20058;-74
2022/11/26 05:46:05;;;;;;;17.67;9.52;;;10.10;98.30;;;;;;4962233;28;20521;-75
2022/11/26 05:48:31;;;;;;;21.80;9.57;;;10.10;98.30;;;;;;4960371;28;20031;-74
2022/11/26 05:50:59;;;;;;;27.02;11.02;;;10.20;98.30;;;;;;4960352;28;20816;-74
2022/11/26 05:53:25;;;;;;;27.58;12.07;;;10.20;98.20;;;;;;4960461;28;20038;-71
2022/11/26 05:55:51;;;;;;;22.67;9.40;;;10.10;98.20;;;;;;4961452;28;20034;-73
2022/11/26 05:58:17;;;;;;;22.92;10.25;;;10.10;98.30;;;;;;4961554;28;20035;-72
2022/11/26 06:00:43;;;;;;;22.58;8.38;;;10.10;98.20;;;;;;4960269;28;20031;-74
2022/11/26 06:03:09;;;;;;;24.23;10.13;;;10.10;98.30;;;;;;4963347;28;20045;-74
2022/11/26 06:05:34;;;;;;;22.02;9.82;;;10.10;98.20;;;;;;4960827;28;20046;-73
2022/11/26 06:08:00;;;;;;;23.58;10.23;;;10.10;98.30;;;;;;4961355;28;20097;-73
2022/11/26 06:10:26;;;;;;;24.38;9.18;;;10.10;98.30;;;;;;4961018;28;20030;-76
2022/11/26 06:12:52;;;;;;;19.25;8.35;;;10.10;98.20;;;;;;4960844;28;20045;-72
2022/11/26 06:15:18;;;;;;;20.88;8.75;;;10.00;98.30;;;;;;4959446;28;20894;-74
2022/11/26 06:17:44;;;;;;;17.83;8.45;;;10.00;98.20;;;;;;4959061;28;20080;-75
2022/11/26 06:20:10;;;;;;;21.35;8.45;;;10.00;98.20;;;;;;4960436;28;20050;-74
2022/11/26 06:22:37;;;;;;;20.55;9.25;;;10.00;98.20;;;;;;4957869;28;20035;-75
2022/11/26 06:25:05;;;;;;;16.83;7.05;;;10.00;98.20;;;;;;4962526;28;20840;-75
2022/11/26 06:27:35;;;;;;;26.73;9.02;;;10.00;98.20;;;;;;4962913;28;20045;-69
2022/11/26 06:30:03;;;;;;;21.83;8.43;;;10.00;98.10;;;;;;4964897;28;20031;-71
2022/11/26 06:32:29;;;;;;;14.23;7.78;;;10.00;98.10;;;;;;4965976;28;20505;-68
2022/11/26 06:34:55;;;;;;;20.25;8.95;;;10.00;98.10;;;;;;4962001;28;20173;-69
2022/11/26 06:37:21;;;;;;;19.00;9.32;;;10.00;98.10;;;;;;4965382;28;20031;-68
2022/11/26 06:39:47;;;;;;;17.42;8.77;;;10.00;98.20;;;;;;4967764;28;20490;-69
2022/11/26 06:42:12;;;;;;;20.83;7.88;;;9.90;98.00;;;;;;4967489;28;20030;-69
2022/11/26 06:44:38;;;;;;;21.88;8.75;;;9.90;98.10;;;;;;4968402;28;20100;-71
2022/11/26 06:47:04;;;;;;;16.52;7.63;;;9.90;98.20;;;;;;4979717;28;20031;-73
2022/11/26 06:49:30;;;;;;;17.13;7.22;;;9.90;98.20;;;;;;4966475;28;20041;-69
2022/11/26 06:51:55;;;;;;;15.02;7.43;;;10.00;98.10;;;;;;4964627;28;20030;-70
2022/11/26 06:54:21;;;;;;;17.88;7.32;;;10.00;98.10;;;;;;4962844;28;20031;-70
2022/11/26 06:56:47;;;;;;;25.38;8.48;;;10.00;98.00;;;;;;4964130;28;20518;-71
2022/11/26 06:59:13;;;;;;;15.60;7.25;;;10.00;98.00;;;;;;4962910;28;20041;-70
2022/11/26 07:01:38;;;;;;;17.23;6.85;;;10.00;98.10;;;;;;4961662;28;20043;-71
2022/11/26 07:04:04;;;;;;;18.95;7.60;;;10.00;98.00;;;;;;4966415;28;20109;-70
2022/11/26 07:06:32;;;;;;;16.98;7.03;;;10.00;98.00;;;;;;4965740;28;20043;-70
2022/11/26 07:09:03;;;;;;;17.05;7.18;;;10.00;98.00;;;;;;4963655;28;20058;-70
2022/11/26 07:11:29;;;;;;;14.77;7.28;;;10.10;98.00;;;;;;4963116;28;20030;-71
2022/11/26 07:13:56;;;;;;;15.88;7.45;;;10.00;98.00;;;;;;4963829;28;20026;-67
2022/11/26 07:16:22;;;;;;;18.40;7.22;;;10.10;98.00;;;;;;4965318;28;20034;-69
2022/11/26 07:18:49;;;;;;;16.90;7.00;;;10.00;98.30;;;;;;4964212;28;20031;-69
2022/11/26 07:21:15;;;;;;;10.43;5.05;;;10.10;98.00;;;;;;4963272;28;20053;-69
2022/11/26 07:23:41;;;;;;;12.18;5.75;;;10.10;98.00;;;;;;4963785;28;20034;-69
2022/11/26 07:26:09;;;;;;;7.90;5.43;;;10.10;98.00;;;;;;4963888;28;20038;-67
2022/11/26 07:28:35;;;;;;;11.15;4.97;;;10.10;98.00;;;;;;4961990;28;20033;-67
2022/11/26 07:31:03;;;;;;;14.70;6.07;;;10.10;97.90;;;;;;4963096;28;20031;-69
2022/11/26 07:33:29;;;;;;;10.70;7.50;;;10.10;98.00;;;;;;4963343;28;20081;-69
2022/11/26 07:35:59;;;;;;;14.32;6.57;;;10.10;98.00;;;;;;4964244;28;20399;-70
2022/11/26 07:38:26;;;;;;;14.75;7.47;;;10.10;98.00;;;;;;4977713;28;20479;-70
2022/11/26 07:40:52;;;;;;;13.98;7.93;;;10.10;98.00;;;;;;4960469;28;20124;-70
2022/11/26 07:43:18;;;;;;;16.48;7.70;;;10.20;98.00;;;;;;4963676;28;20023;-68
2022/11/26 07:45:44;;;;;;;19.02;7.35;;;10.20;98.00;;;;;;4963425;28;20037;-68
2022/11/26 07:48:09;;;;;;;19.85;8.13;;;10.20;98.00;;;;;;4965302;28;20042;-66
2022/11/26 07:50:35;;;;;;;14.57;7.10;;;10.20;97.90;;;;;;4963726;28;20305;-66
2022/11/26 07:53:01;;;;;;;13.98;7.30;;;10.20;97.90;;;;;;4963417;28;20026;-67
2022/11/26 07:55:27;;;;;;;16.65;8.27;;;10.20;97.90;;;;;;4963252;28;20785;-67
2022/11/26 07:57:52;;;;;;;17.33;7.88;;;10.20;98.00;;;;;;4961207;28;20026;-66
2022/11/26 08:00:19;;;;;;;15.82;6.82;;;10.20;98.00;;;;;;4960307;28;20117;-67
2022/11/26 08:02:44;;;;;;;13.35;5.82;;;10.30;98.00;;;;;;4963145;28;20114;-66
2022/11/26 08:05:10;;;;;;;15.60;5.53;;;10.30;97.90;;;;;;4964730;28;20301;-66
2022/11/26 08:07:36;;;;;;;12.73;5.25;;;10.30;97.90;;;;;;4963188;28;20035;-66
2022/11/26 08:10:03;;;;;;;26.02;8.45;;;10.30;97.90;;;;;;4962575;28;20130;-72
2022/11/26 08:12:29;;;;;;;24.40;10.07;;;10.40;97.60;;;;;;4962661;28;20031;-66
2022/11/26 08:14:55;;;;;;;18.95;8.57;;;10.40;97.60;;;;;;4962768;28;20476;-65
2022/11/26 08:17:21;;;;;;;34.97;13.50;;;10.40;97.60;;;;;;4960061;28;20027;-65
2022/11/26 08:19:46;;;;;;;27.38;9.18;;;10.40;97.60;;;;;;4961427;28;20042;-65
2022/11/26 08:22:12;;;;;;;32.55;11.35;;;10.40;97.50;;;;;;4960922;28;20113;-66
2022/11/26 08:24:38;;;;;;;25.33;9.73;;;10.40;97.50;;;;;;4961483;28;20027;-67
2022/11/26 08:27:04;;;;;;;21.33;8.38;;;10.40;97.60;;;;;;4961869;28;20085;-66
2022/11/26 08:29:30;;;;;;;17.65;7.03;;;10.40;97.60;;;;;;4962373;28;20836;-66
2022/11/26 08:31:56;;;;;;;19.58;7.63;;;10.40;97.50;;;;;;4962180;28;20737;-66
2022/11/26 08:34:21;;;;;;;15.27;7.03;;;10.40;97.50;;;;;;4962019;28;20027;-66
2022/11/26 08:36:47;;;;;;;23.88;8.13;;;10.40;97.50;;;;;;4965200;28;20126;-65
2022/11/26 08:39:17;;;;;;;20.50;6.82;;;10.50;97.50;;;;;;4963847;28;20027;-67
2022/11/26 08:41:43;;;;;;;24.02;7.75;;;10.40;97.40;;;;;;4963394;28;20415;-66
2022/11/26 08:44:09;;;;;;;19.88;8.05;;;10.40;97.30;;;;;;4952885;28;20026;-66
2022/11/26 08:46:40;;;;;;;20.85;7.28;;;10.50;97.30;;;;;;4960764;28;20610;-72
2022/11/26 08:49:08;;;;;;;15.23;6.47;;;10.50;97.40;;;;;;4961036;28;20192;-70
2022/11/26 08:51:34;;;;;;;14.60;6.57;;;10.50;97.30;;;;;;4959372;28;20029;-72
2022/11/26 08:54:01;;;;;;;25.58;7.60;;;10.50;97.20;;;;;;4964699;28;20523;-72
2022/11/26 08:56:27;;;;;;;18.65;7.38;;;10.50;97.00;;;;;;4958347;28;20033;-72
2022/11/26 08:58:52;;;;;;;20.73;5.78;;;10.50;97.00;;;;;;4961356;28;20495;-72
2022/11/26 09:01:25;;;;;;;15.13;5.80;;;10.50;97.00;;;;;;4963543;28;20031;-70
2022/11/26 09:03:53;;;;;;;21.58;7.95;;;10.50;97.10;;;;;;4961368;28;20026;-71
2022/11/26 09:06:20;;;;;;;15.48;6.47;;;10.60;97.10;;;;;;4959723;28;20031;-71
2022/11/26 09:11:33;;;;;;;14.88;6.07;;;10.60;97.00;;;;;;4959881;28;20062;-68
2022/11/26 09:13:59;;;;;;;19.35;7.00;;;10.60;97.00;;;;;;4960023;28;20072;-70
2022/11/26 09:16:25;;;;;;;17.60;7.25;;;10.60;97.00;;;;;;4961115;28;20041;-72
2022/11/26 09:18:51;;;;;;;15.98;7.05;;;10.70;97.00;;;;;;4958300;28;20489;-65
2022/11/26 09:21:21;;;;;;;13.73;6.60;;;10.60;97.00;;;;;;4957850;28;20045;-68
2022/11/26 09:23:47;;;;;;;19.35;6.90;;;10.70;97.10;;;;;;4964468;28;20026;-70
2022/11/26 09:26:13;;;;;;;21.13;7.13;;;10.70;97.10;;;;;;4960358;28;20462;-70
2022/11/26 09:28:38;;;;;;;21.98;6.45;;;10.70;96.50;;;;;;4960508;28;20817;-70
2022/11/26 09:31:04;;;;;;;14.38;7.03;;;10.70;96.40;;;;;;4962718;28;20027;-70
2022/11/26 09:33:31;;;;;;;18.02;5.82;;;10.70;96.70;;;;;;4962997;28;20823;-69
2022/11/26 09:36:09;;;;;;;17.15;5.15;;;10.60;96.40;;;;;;4960184;28;20078;-70
2022/11/26 09:38:35;;;;;;;20.58;6.18;;;10.60;96.40;;;;;;4960488;28;20022;-65
2022/11/26 09:41:42;;;;;;;15.88;6.05;;;10.60;96.50;;;;;;4960038;28;20042;-65
2022/11/26 09:44:32;;;;;;;16.35;6.22;;;10.60;96.60;;;;;;4959131;28;20035;-66
2022/11/26 09:47:18;;;;;;;16.65;6.35;;;10.60;96.60;;;;;;4959514;28;20487;-66
2022/11/26 09:50:06;;;;;;;15.05;6.38;;;10.60;96.60;;;;;;4959618;28;20031;-68
2022/11/26 09:52:56;;;;;;;18.63;8.45;;;10.60;96.60;;;;;;4960920;28;20791;-66
2022/11/26 09:55:34;;;;;;;16.98;6.20;;;10.60;96.60;;;;;;4957469;28;20129;-67
2022/11/26 09:58:05;;;;;;;25.20;7.55;;;10.70;96.90;;;;;;4960525;28;20034;-65
2022/11/26 10:00:36;;;;;;;19.98;6.63;;;10.70;96.50;;;;;;4959230;28;20038;-65
2022/11/26 10:03:12;;;;;;;15.38;6.72;;;10.70;96.40;;;;;;4961880;28;20034;-65
2022/11/26 10:05:43;;;;;;;;;;;10.70;96.50;;;;;;4963655;28;20039;-66
2022/11/26 10:09:05;;;;;;;11.38;5.07;;;10.70;96.50;;;;;;4961256;28;19914;-65
2022/11/26 10:11:58;;;;;;;15.88;5.40;;;10.60;96.60;;;;;;4918015;29;20035;-68
2022/11/26 10:14:35;;;;;;;9.15;4.68;;;10.60;96.60;;;;;;4919124;29;20056;-68
2022/11/26 10:17:28;;;;;;;15.15;5.53;;;10.70;96.60;;;;;;4959876;28;20049;-70
2022/11/26 10:20:12;;;;;;;15.07;5.35;;;10.70;96.70;;;;;;4964052;28;20038;-70
2022/11/26 10:22:52;;;;;;;18.65;5.40;;;10.70;96.50;;;;;;4960088;28;20057;-69
2022/11/26 10:25:21;;;;;;;21.33;6.00;;;10.70;96.50;;;;;;4961305;28;20045;-69
2022/11/26 10:27:48;;;;;;;15.48;5.22;;;10.80;96.50;;;;;;4964646;28;20472;-68
2022/11/26 10:30:24;;;;;;;14.77;5.72;;;10.80;96.50;;;;;;4964251;28;20035;-68
2022/11/26 10:32:51;;;;;;;17.65;5.75;;;10.90;96.50;;;;;;4971124;28;20555;-69
2022/11/26 10:35:23;;;;;;;16.98;4.97;;;10.90;96.10;;;;;;4973147;28;20034;-70
2022/11/26 10:37:50;;;;;;;17.40;6.88;;;10.90;96.20;;;;;;4965548;28;20042;-71
2022/11/26 10:40:25;;;;;;;11.45;4.85;;;10.90;95.80;;;;;;4967325;28;20039;-71
2022/11/26 10:43:00;;;;;;;15.18;4.82;;;10.90;95.80;;;;;;4965527;28;20483;-71
2022/11/26 10:45:41;;;;;;;15.65;4.07;;;10.90;95.90;;;;;;4969918;28;20034;-69
2022/11/26 10:48:25;;;;;;;17.88;4.80;;;11.00;95.90;;;;;;4970685;28;20141;-70
2022/11/26 10:51:02;;;;;;;13.65;5.05;;;11.00;96.00;;;;;;4967864;28;20035;-69
2022/11/26 10:53:48;;;;;;;11.55;4.78;;;11.00;96.00;;;;;;4968570;28;20162;-69
2022/11/26 10:56:18;;;;;;;11.87;4.33;;;11.00;95.90;;;;;;4966579;28;20380;-68
2022/11/26 10:58:44;;;;;;;8.07;4.05;;;11.10;95.80;;;;;;4962624;28;20077;-69
2022/11/26 11:01:14;;;;;;;10.35;3.97;;;11.10;95.90;;;;;;4964248;28;20090;-69
2022/11/26 11:03:53;;;;;;;17.25;4.90;;;11.10;96.00;;;;;;4966440;28;20034;-69
2022/11/26 11:06:19;;;;;;;11.77;5.22;;;11.20;96.00;;;;;;4986343;28;20051;-69
2022/11/26 11:08:50;;;;;;;23.27;5.30;;;11.30;95.90;;;;;;4971634;28;20066;-69
2022/11/26 11:11:27;;;;;;;20.75;5.43;;;11.30;95.80;;;;;;4968341;28;20093;-69
2022/11/26 11:13:54;;;;;;;18.98;6.47;;;11.30;95.30;;;;;;4964454;28;20027;-69
2022/11/26 11:16:45;;;;;;;12.80;5.35;;;11.30;95.10;;;;;;4965752;28;20038;-70
2022/11/26 11:19:25;;;;;;;16.48;5.07;;;11.30;95.10;;;;;;4962853;28;20027;-70
2022/11/26 11:21:51;;;;;;;11.45;3.90;;;11.30;94.90;;;;;;4963387;28;20677;-68
2022/11/26 11:24:22;;;;;;;13.93;4.60;;;11.20;95.00;;;;;;4970931;28;20476;-71
2022/11/26 11:26:52;;;;;;;14.82;6.80;;;11.20;95.30;;;;;;4986113;28;20034;-69
2022/11/26 11:29:35;;;;;;;14.75;7.22;;;11.20;95.40;;;;;;4970979;28;20035;-69
2022/11/26 11:32:25;;;;;;;14.00;5.57;;;11.20;95.40;;;;;;4968627;28;20038;-69
2022/11/26 11:34:51;;;;;;;11.25;4.75;;;11.20;94.90;;;;;;4962879;28;20023;-69
2022/11/26 11:37:20;;;;;;;16.33;5.28;;;11.20;95.00;;;;;;4966339;28;20026;-71
2022/11/26 11:40:03;;;;;;;15.20;4.50;;;11.10;95.00;;;;;;4963782;28;20446;-72
2022/11/26 11:42:31;;;;;;;14.63;4.50;;;11.10;95.10;;;;;;4970081;28;20534;-69
2022/11/26 11:44:59;;;;;;;10.40;4.43;;;11.10;95.00;;;;;;4970026;28;20174;-70
2022/11/26 11:47:45;;;;;;;15.55;4.63;;;11.00;95.10;;;;;;4970749;28;20039;-70
2022/11/26 11:50:31;;;;;;;13.40;4.47;;;11.00;95.10;;;;;;4966303;28;20121;-72
2022/11/26 11:53:15;;;;;;;14.00;4.88;;;11.00;94.90;;;;;;4963890;28;20051;-71
2022/11/26 11:56:11;;;;;;;22.20;5.70;;;10.90;94.80;;;;;;4965402;28;20749;-69
2022/11/26 11:59:07;;;;;;;14.52;4.28;;;10.90;94.90;;;;;;4960353;28;20678;-71
2022/11/26 12:01:43;;;;;;;17.23;4.57;;;10.90;94.90;;;;;;4965884;28;20041;-70
2022/11/26 12:04:36;;;;;;;11.57;3.78;;;10.90;95.00;;;;;;4969389;28;20278;-70
2022/11/26 12:07:38;;;;;;;14.43;4.80;;;10.90;95.10;;;;;;4964845;28;20035;-71
2022/11/26 12:10:20;;;;;;;12.65;4.30;;;10.90;95.10;;;;;;4964319;28;20671;-70
2022/11/26 12:12:51;;;;;;;14.85;4.40;;;10.80;95.10;;;;;;4961697;28;20097;-69
2022/11/26 12:15:23;;;;;;;11.73;4.10;;;10.80;95.10;;;;;;4964956;28;20045;-70
2022/11/26 12:18:02;;;;;;;12.45;4.07;;;10.80;94.90;;;;;;4962743;28;20059;-70
2022/11/26 12:20:45;;;;;;;12.35;3.67;;;10.80;95.00;;;;;;4972253;28;20034;-69
2022/11/26 12:23:31;;;;;;;12.55;3.60;;;10.80;95.00;;;;;;4966539;28;20027;-69
2022/11/26 12:26:05;;;;;;;;;;;10.80;95.20;;;;;;4963166;28;20158;-70
2022/11/26 12:28:41;;;;;;;12.25;3.65;;;10.80;95.10;;;;;;4968106;28;19914;-68
2022/11/26 12:31:14;;;;;;;;;;;10.80;95.10;;;;;;4965593;28;20114;-67
2022/11/26 12:33:56;;;;;;;13.05;3.00;;;10.80;94.80;;;;;;4963848;28;19920;-67
2022/11/26 12:36:34;;;;;;;9.48;3.58;;;10.70;95.00;;;;;;4962121;28;20069;-68
2022/11/26 12:39:16;;;;;;;12.23;4.00;;;10.70;95.10;;;;;;4969638;28;20077;-68
2022/11/26 12:41:52;;;;;;;15.65;3.70;;;10.70;95.10;;;;;;4966371;28;20026;-68
2022/11/26 12:44:31;;;;;;;12.30;3.53;;;10.70;95.00;;;;;;4968847;28;20101;-68
2022/11/26 12:47:23;;;;;;;12.43;3.65;;;10.70;95.10;;;;;;4963273;28;20058;-67
2022/11/26 12:50:19;;;;;;;10.57;3.95;;;10.80;95.10;;;;;;4961117;28;20058;-67
2022/11/26 12:53:18;;;;;;;10.02;3.60;;;10.80;95.20;;;;;;4960662;28;20106;-68
2022/11/26 12:55:58;;;;;;;9.73;2.88;;;10.80;95.20;;;;;;4959611;28;20042;-68
2022/11/26 12:58:39;;;;;;;9.55;3.45;;;10.90;95.00;;;;;;4970306;28;20031;-68